Time;durP1;ratioP1;P1;durP2;ratioP2;P2;SDS_P1;SDS_P2;PMS_P1;PMS_P2;Temp;Humidity;BMP_temperature;BMP_pressure;BME280_temperature;BME280_humidity;BME280_pressure;Samples;Min_cycle;Max_cycle;Signal;HPM_P1;HPM_P2
2022/08/01 00:02:15;;;;;;;4.80;3.75;;;;;;;20.90;79.22;97881.41;5013571;28;21278;-73
2022/08/01 00:04:40;;;;;;;5.00;3.30;;;;;;;20.92;78.86;97881.88;5013612;28;20041;-73
2022/08/01 00:07:05;;;;;;;4.90;3.25;;;;;;;20.90;78.86;97873.06;5013828;28;20438;-73
2022/08/01 00:09:31;;;;;;;4.13;3.60;;;;;;;20.91;78.96;97876.66;5013677;28;20026;-73
2022/08/01 00:11:56;;;;;;;4.00;3.47;;;;;;;20.96;78.88;97876.38;4995865;28;20083;-73
2022/08/01 00:14:21;;;;;;;4.70;3.80;;;;;;;20.86;79.90;97872.22;5013761;28;20030;-74
2022/08/01 00:16:47;;;;;;;5.80;4.03;;;;;;;20.62;83.04;97884.38;5013253;28;20033;-73
2022/08/01 00:19:13;;;;;;;7.00;3.80;;;;;;;20.47;84.10;97889.97;5013562;28;20030;-75
2022/08/01 00:21:38;;;;;;;5.47;4.28;;;;;;;20.53;84.10;97891.31;5013256;28;20105;-74
2022/08/01 00:24:05;;;;;;;6.45;4.57;;;;;;;20.49;84.64;97884.84;4995647;28;20060;-73
2022/08/01 00:26:30;;;;;;;6.22;4.18;;;;;;;20.32;85.88;97882.47;5013333;28;20026;-72
2022/08/01 00:28:56;;;;;;;7.22;4.57;;;;;;;20.37;86.31;97888.56;5013129;28;20613;-73
2022/08/01 00:31:21;;;;;;;9.70;4.65;;;;;;;20.53;86.09;97882.97;4995639;28;20033;-74
2022/08/01 00:33:47;;;;;;;5.45;3.95;;;;;;;20.61;84.55;97881.97;5013288;28;20029;-74
2022/08/01 00:36:12;;;;;;;6.03;3.70;;;;;;;20.72;83.41;97888.56;4995341;28;20364;-73
2022/08/01 00:38:37;;;;;;;6.35;3.45;;;;;;;20.62;83.18;97889.13;5012865;28;20042;-73
2022/08/01 00:41:03;;;;;;;5.65;3.95;;;;;;;20.61;83.36;97893.09;5013192;28;20119;-74
2022/08/01 00:43:29;;;;;;;5.25;3.35;;;;;;;20.66;82.53;97890.03;5012995;28;20046;-73
2022/08/01 00:45:55;;;;;;;4.43;3.55;;;;;;;20.70;82.75;97897.28;5011862;28;20022;-73
2022/08/01 00:48:20;;;;;;;6.18;3.83;;;;;;;20.66;82.54;97890.03;4995346;28;20030;-73
2022/08/01 00:50:46;;;;;;;4.53;4.05;;;;;;;20.64;82.49;97893.16;5012656;28;20108;-72
2022/08/01 00:53:11;;;;;;;4.88;3.88;;;;;;;20.69;82.46;97890.13;5013027;28;20030;-73
2022/08/01 00:55:37;;;;;;;5.18;3.40;;;;;;;20.81;81.26;97889.97;5012775;28;20025;-73
2022/08/01 00:58:02;;;;;;;5.70;3.58;;;;;;;20.79;80.40;97891.53;4995700;28;20060;-73
2022/08/01 01:00:28;;;;;;;6.28;4.22;;;;;;;20.67;81.99;97886.09;5015142;28;20036;-74
2022/08/01 01:02:53;;;;;;;6.53;3.95;;;;;;;20.54;84.29;97890.16;5016688;28;20490;-74
2022/08/01 01:05:18;;;;;;;5.80;4.28;;;;;;;20.52;84.80;97889.69;5012404;28;20084;-74
2022/08/01 01:07:55;;;;;;;4.57;3.80;;;;;;;20.53;84.65;97888.53;5012412;28;20097;-74
2022/08/01 01:10:40;;;;;;;4.53;3.83;;;;;;;20.63;84.30;97891.56;5012388;28;20420;-73
2022/08/01 01:13:10;;;;;;;7.28;3.92;;;;;;;20.66;83.77;97873.34;4994513;28;20467;-73
2022/08/01 01:15:49;;;;;;;5.80;3.88;;;;;;;20.79;82.17;97888.75;5012221;28;20030;-74
2022/08/01 01:18:22;;;;;;;6.28;3.75;;;;;;;20.77;82.16;97886.31;5012244;28;20070;-73
2022/08/01 01:21:20;;;;;;;5.88;3.90;;;;;;;20.76;82.47;97883.91;5012119;28;20061;-74
2022/08/01 01:24:15;;;;;;;4.30;3.55;;;;;;;20.76;82.38;97883.91;4968354;28;20084;-74
2022/08/01 01:27:07;;;;;;;5.35;3.88;;;;;;;20.74;82.24;97889.81;4994345;28;20071;-75
2022/08/01 01:29:39;;;;;;;5.50;3.40;;;;;;;20.66;83.52;97884.47;5012082;28;20089;-76
2022/08/01 01:32:33;;;;;;;5.18;3.65;;;;;;;20.68;83.73;97879.34;5011863;28;20037;-74
2022/08/01 01:35:01;;;;;;;5.10;3.72;;;;;;;20.57;84.46;97872.75;5011915;28;20022;-75
2022/08/01 01:37:29;;;;;;;5.25;3.58;;;;;;;20.64;83.45;97881.25;5011919;28;20030;-73
2022/08/01 01:39:56;;;;;;;4.60;3.42;;;;;;;20.56;84.43;97873.91;5011672;28;20515;-73
2022/08/01 01:42:25;;;;;;;4.30;3.53;;;;;;;20.45;84.53;97872.88;5011541;28;20022;-74
2022/08/01 01:44:51;;;;;;;5.57;4.15;;;;;;;20.43;85.83;97872.41;5011719;28;20065;-75
2022/08/01 01:47:17;;;;;;;3.78;3.25;;;;;;;20.36;86.37;97877.81;5011768;28;20076;-74
2022/08/01 01:49:46;;;;;;;5.00;3.38;;;;;;;20.37;86.37;97871.88;5011649;28;20514;-73
2022/08/01 01:52:13;;;;;;;4.68;3.45;;;;;;;20.41;86.26;97877.53;5011595;28;20113;-74
2022/08/01 01:54:46;;;;;;;4.72;3.60;;;;;;;20.35;86.57;97878.97;4993791;28;20026;-74
2022/08/01 01:57:12;;;;;;;6.05;3.85;;;;;;;20.34;87.21;97869.03;5011212;28;20034;-74
2022/08/01 01:59:39;;;;;;;4.97;3.47;;;;;;;20.35;87.66;97873.41;5011470;28;20032;-74
2022/08/01 02:02:06;;;;;;;5.45;3.70;;;;;;;20.33;88.11;97884.88;5011882;28;20088;-74
2022/08/01 02:04:34;;;;;;;4.22;3.72;;;;;;;20.33;86.89;97875.75;5011753;28;20030;-74
2022/08/01 02:07:02;;;;;;;5.05;3.15;;;;;;;20.29;86.76;97876.50;5011346;28;20038;-75
2022/08/01 02:09:28;;;;;;;4.85;3.72;;;;;;;20.32;86.38;97868.59;5011282;28;20037;-73
2022/08/01 02:11:55;;;;;;;4.90;3.67;;;;;;;20.35;84.64;97870.66;5011314;28;20026;-74
2022/08/01 02:14:23;;;;;;;4.53;4.00;;;;;;;20.28;84.22;97869.31;5011227;28;20471;-74
2022/08/01 02:16:50;;;;;;;3.92;3.35;;;;;;;20.23;84.95;97871.53;4993419;28;20861;-74
2022/08/01 02:19:19;;;;;;;5.05;3.63;;;;;;;20.15;84.29;97876.09;5011030;28;20037;-73
2022/08/01 02:21:55;;;;;;;4.80;3.63;;;;;;;20.16;84.52;97868.56;5011029;28;20037;-75
2022/08/01 02:24:36;;;;;;;5.93;4.18;;;;;;;20.12;85.34;97871.25;5011307;28;20386;-74
2022/08/01 02:27:08;;;;;;;6.30;3.78;;;;;;;19.98;86.73;97854.25;5010997;28;20022;-74
2022/08/01 02:29:42;;;;;;;4.97;3.88;;;;;;;19.94;87.42;97856.13;5008253;28;20121;-74
2022/08/01 02:32:12;;;;;;;4.40;3.55;;;;;;;19.91;88.21;97858.81;4993285;28;20026;-75
2022/08/01 02:34:38;;;;;;;5.38;3.70;;;;;;;19.89;88.21;97861.94;4993616;28;20447;-75
2022/08/01 02:37:04;;;;;;;4.55;3.50;;;;;;;19.92;88.02;97863.22;5011102;28;20435;-74
2022/08/01 02:39:31;;;;;;;4.80;3.75;;;;;;;19.97;87.29;97869.31;5010563;28;20080;-74
2022/08/01 02:42:00;;;;;;;5.18;3.33;;;;;;;20.05;86.29;97870.28;5010859;28;20129;-74
2022/08/01 02:44:31;;;;;;;7.68;3.55;;;;;;;19.97;87.24;97872.09;5013050;28;20037;-73
2022/08/01 02:47:02;;;;;;;5.60;3.80;;;;;;;19.86;88.11;97868.22;5015779;28;20072;-75
2022/08/01 02:49:53;;;;;;;4.95;4.00;;;;;;;19.73;87.76;97855.59;5016082;28;20034;-75
2022/08/01 02:52:21;;;;;;;4.50;3.92;;;;;;;19.71;88.62;97871.78;5013768;28;20041;-75
2022/08/01 02:54:49;;;;;;;5.07;4.07;;;;;;;19.63;87.34;97856.13;5011616;28;20033;-74
2022/08/01 02:57:17;;;;;;;4.35;3.80;;;;;;;19.77;86.67;97873.13;5010533;28;20022;-74
2022/08/01 02:59:45;;;;;;;4.57;4.13;;;;;;;19.79;86.56;97873.59;5010658;28;20064;-74
2022/08/01 03:02:13;;;;;;;4.50;3.80;;;;;;;19.77;86.71;97876.72;5010526;28;20065;-74
2022/08/01 03:04:41;;;;;;;4.97;3.78;;;;;;;19.77;86.48;97870.38;5010565;28;20029;-75
2022/08/01 03:07:09;;;;;;;4.07;3.65;;;;;;;19.87;85.79;97867.06;5010663;28;20507;-74
2022/08/01 03:09:39;;;;;;;5.65;3.63;;;;;;;19.87;86.10;97869.84;5012355;28;20036;-74
2022/08/01 03:12:09;;;;;;;4.35;3.90;;;;;;;19.79;85.88;97856.94;5014752;28;20026;-74
2022/08/01 03:14:37;;;;;;;4.47;4.03;;;;;;;19.86;85.81;97867.44;5015613;28;20030;-74
2022/08/01 03:17:05;;;;;;;5.47;3.85;;;;;;;19.87;85.22;97869.84;5001163;28;20072;-75
2022/08/01 03:19:33;;;;;;;5.05;3.70;;;;;;;19.87;84.87;97867.06;5016587;28;20398;-74
2022/08/01 03:22:03;;;;;;;3.90;3.30;;;;;;;19.85;84.10;97872.19;5014399;28;20100;-73
2022/08/01 03:24:30;;;;;;;4.13;3.72;;;;;;;19.82;84.35;97872.91;5014277;28;20040;-74
2022/08/01 03:26:58;;;;;;;5.18;4.00;;;;;;;19.83;84.24;97877.25;4996708;28;20083;-72
2022/08/01 03:29:25;;;;;;;4.93;3.90;;;;;;;19.84;84.44;97876.09;5014404;28;20045;-74
2022/08/01 03:31:51;;;;;;;5.07;3.88;;;;;;;19.74;86.04;97865.53;5014386;28;20088;-73
2022/08/01 03:34:17;;;;;;;4.43;3.83;;;;;;;19.70;86.75;97873.75;5014318;28;20426;-74
2022/08/01 03:36:49;;;;;;;5.53;4.00;;;;;;;19.70;86.60;97876.53;5014102;28;20033;-74
2022/08/01 03:39:17;;;;;;;6.18;3.40;;;;;;;19.67;87.42;97870.91;5013992;28;20129;-76
2022/08/01 03:41:49;;;;;;;4.85;3.97;;;;;;;19.76;87.50;97886.25;5013980;28;20022;-74
2022/08/01 03:44:17;;;;;;;5.47;3.92;;;;;;;19.81;88.33;97887.13;5014230;28;20425;-74
2022/08/01 03:46:47;;;;;;;4.70;4.05;;;;;;;19.78;88.67;97889.44;5014148;28;20026;-74
2022/08/01 03:49:22;;;;;;;4.13;3.60;;;;;;;19.84;88.68;97881.66;5014099;28;20034;-75
2022/08/01 03:51:49;;;;;;;;;;;;;;;19.87;88.33;97885.69;5014680;28;20060;-73
2022/08/01 03:54:17;;;;;;;4.65;3.80;;;;;;;19.90;88.37;97888.56;5014000;28;19918;-74
2022/08/01 03:56:43;;;;;;;5.05;3.50;;;;;;;19.79;88.92;97879.16;5013942;28;20038;-73
2022/08/01 03:59:09;;;;;;;4.07;3.67;;;;;;;19.68;89.88;97894.72;5013855;28;20383;-74
2022/08/01 04:01:34;;;;;;;5.45;3.65;;;;;;;19.78;90.40;97891.41;5013642;28;20030;-75
2022/08/01 04:04:01;;;;;;;5.10;3.78;;;;;;;19.67;90.82;97876.47;5013521;28;20116;-74
2022/08/01 04:06:26;;;;;;;4.50;3.80;;;;;;;19.61;91.41;97878.69;5013510;28;20030;-73
2022/08/01 04:08:58;;;;;;;4.43;3.72;;;;;;;19.61;91.67;97888.97;5013420;28;20045;-74
2022/08/01 04:11:25;;;;;;;5.38;3.80;;;;;;;19.71;90.83;97891.22;5013419;28;20430;-75
2022/08/01 04:13:53;;;;;;;4.43;3.60;;;;;;;19.75;89.70;97892.13;5013527;28;20037;-74
2022/08/01 04:16:19;;;;;;;4.22;3.70;;;;;;;19.68;90.45;97887.19;5013520;28;20036;-74
2022/08/01 04:18:44;;;;;;;4.95;4.03;;;;;;;19.68;90.81;97883.59;5013179;28;20494;-74
2022/08/01 04:21:10;;;;;;;6.57;3.70;;;;;;;19.70;90.15;97886.84;5012209;28;20030;-74
2022/08/01 04:23:38;;;;;;;8.75;6.60;;;;;;;19.62;90.25;97891.41;5013342;28;20022;-74
2022/08/01 04:26:05;;;;;;;5.15;3.97;;;;;;;19.62;91.03;97894.19;5013334;28;20034;-74
2022/08/01 04:28:35;;;;;;;7.07;4.63;;;;;;;19.53;92.22;97893.53;5013132;28;20112;-74
2022/08/01 04:31:02;;;;;;;5.45;4.45;;;;;;;19.43;92.65;97882.94;5013300;28;20022;-73
2022/08/01 04:33:30;;;;;;;7.28;4.38;;;;;;;19.52;92.98;97891.09;5013136;28;20022;-74
2022/08/01 04:35:59;;;;;;;5.40;4.38;;;;;;;19.51;92.61;97889.50;5013055;28;20125;-73
2022/08/01 04:38:27;;;;;;;6.30;4.20;;;;;;;19.55;91.48;97890.38;5013063;28;20044;-73
2022/08/01 04:40:53;;;;;;;8.48;4.93;;;;;;;19.52;90.66;97880.81;5012991;28;20050;-73
2022/08/01 04:43:19;;;;;;;5.22;3.88;;;;;;;19.60;89.47;97882.63;5012925;28;20095;-74
2022/08/01 04:45:46;;;;;;;6.80;4.22;;;;;;;19.60;89.33;97887.38;5012858;28;20447;-74
2022/08/01 04:48:14;;;;;;;5.45;3.65;;;;;;;19.61;89.07;97889.78;5012816;28;20490;-73
2022/08/01 04:50:41;;;;;;;5.18;4.40;;;;;;;19.62;88.27;97893.38;5012955;28;20030;-74
2022/08/01 04:53:16;;;;;;;5.90;4.15;;;;;;;19.57;88.47;97897.22;5012968;28;20080;-74
2022/08/01 04:55:42;;;;;;;5.50;4.50;;;;;;;19.52;88.33;97885.56;5012816;28;20466;-74
2022/08/01 04:58:09;;;;;;;6.50;4.20;;;;;;;19.43;88.86;97887.69;5012538;28;20073;-74
2022/08/01 05:00:36;;;;;;;6.40;4.35;;;;;;;19.54;88.18;97888.78;5012740;28;20033;-75
2022/08/01 05:03:01;;;;;;;6.07;4.50;;;;;;;19.73;86.91;97884.16;5012770;28;20032;-73
2022/08/01 05:05:27;;;;;;;7.90;4.47;;;;;;;20.00;85.35;97885.25;5012424;28;20434;-74
2022/08/01 05:07:53;;;;;;;8.20;4.57;;;;;;;20.01;84.19;97881.31;5012464;28;20026;-75
2022/08/01 05:10:18;;;;;;;8.77;4.53;;;;;;;20.15;83.52;97890.00;4994495;28;20071;-74
2022/08/01 05:12:44;;;;;;;9.68;5.10;;;;;;;20.30;82.71;97888.38;5012344;28;20049;-74
2022/08/01 05:15:09;;;;;;;10.20;5.13;;;;;;;20.94;78.43;97896.22;5012333;28;20034;-75
2022/08/01 05:17:34;;;;;;;18.45;8.40;;;;;;;21.08;76.73;97896.50;4994296;28;20026;-74
2022/08/01 05:20:00;;;;;;;17.92;8.35;;;;;;;21.19;76.56;97892.03;5011964;28;20121;-74
2022/08/01 05:22:25;;;;;;;9.82;7.78;;;;;;;21.97;73.27;97887.97;5012227;28;20033;-74
2022/08/01 05:24:52;;;;;;;8.55;5.95;;;;;;;22.36;70.60;97900.56;5012253;28;20033;-74
2022/08/01 05:27:17;;;;;;;6.65;5.55;;;;;;;22.91;67.81;97898.22;5012543;28;20033;-74
2022/08/01 05:29:43;;;;;;;8.98;5.45;;;;;;;23.25;65.54;97899.06;5012395;28;20026;-75
2022/08/01 05:32:09;;;;;;;6.72;4.90;;;;;;;22.76;67.20;97902.00;5015960;28;20045;-75
2022/08/01 05:34:34;;;;;;;11.80;5.80;;;;;;;22.45;68.18;97888.34;5016733;28;20029;-75
2022/08/01 05:37:00;;;;;;;11.43;5.82;;;;;;;22.41;68.50;97891.06;4994377;28;20034;-75
2022/08/01 05:39:25;;;;;;;16.50;5.93;;;;;;;22.29;68.87;97886.53;4994365;28;20053;-74
2022/08/01 05:41:50;;;;;;;8.43;5.50;;;;;;;22.20;69.08;97879.59;5011799;28;20485;-73
2022/08/01 05:44:16;;;;;;;5.68;4.70;;;;;;;22.12;70.14;97883.41;4994158;28;20029;-72
2022/08/01 05:46:41;;;;;;;9.43;5.03;;;;;;;22.10;70.72;97902.50;5011615;28;20044;-75
2022/08/01 05:49:06;;;;;;;8.20;4.43;;;;;;;22.13;69.17;97896.19;5011494;28;20040;-75
2022/08/01 05:51:32;;;;;;;8.02;4.47;;;;;;;22.24;68.85;97906.31;5011740;28;20037;-74
2022/08/01 05:53:58;;;;;;;8.68;4.22;;;;;;;22.42;67.68;97904.66;4993931;28;20026;-74
2022/08/01 05:56:23;;;;;;;6.95;4.85;;;;;;;22.35;68.38;97898.97;5011500;28;20037;-74
2022/08/01 05:58:50;;;;;;;12.05;4.95;;;;;;;22.20;68.66;97896.31;5011846;28;20037;-74
2022/08/01 06:01:16;;;;;;;12.45;4.97;;;;;;;22.27;68.56;97897.22;5011669;28;20041;-74
2022/08/01 06:03:42;;;;;;;6.35;4.55;;;;;;;22.33;68.13;97903.31;5011679;28;20073;-75
2022/08/01 06:06:07;;;;;;;5.65;4.47;;;;;;;22.32;68.41;97893.31;4994037;28;20069;-74
2022/08/01 06:08:32;;;;;;;8.85;5.32;;;;;;;22.64;67.08;97891.84;5011477;28;20489;-75
2022/08/01 06:10:58;;;;;;;8.57;4.43;;;;;;;23.07;65.42;97896.06;5011297;28;20026;-74
2022/08/01 06:13:24;;;;;;;9.13;5.20;;;;;;;23.09;64.05;97882.50;5011241;28;20088;-75
2022/08/01 06:15:50;;;;;;;8.80;5.10;;;;;;;24.04;61.10;97901.56;5011421;28;20026;-74
2022/08/01 06:18:16;;;;;;;7.07;4.60;;;;;;;24.07;60.13;97909.19;5012071;28;20045;-74
2022/08/01 06:20:41;;;;;;;6.35;4.50;;;;;;;23.90;60.61;97910.63;5011476;28;20451;-74
2022/08/01 06:23:07;;;;;;;6.40;4.25;;;;;;;23.38;61.32;97909.59;5010936;28;20046;-75
2022/08/01 06:25:33;;;;;;;7.28;4.30;;;;;;;23.35;61.12;97913.16;5011126;28;20025;-75
2022/08/01 06:27:58;;;;;;;7.95;4.32;;;;;;;23.95;60.01;97910.28;5011099;28;20029;-74
2022/08/01 06:30:24;;;;;;;5.50;3.83;;;;;;;24.76;56.16;97927.75;5010937;28;20483;-76
2022/08/01 06:32:49;;;;;;;6.93;3.75;;;;;;;25.32;54.71;97935.72;5011285;28;20030;-75
2022/08/01 06:35:15;;;;;;;11.82;3.90;;;;;;;25.50;54.50;97924.63;5011069;28;20036;-74
2022/08/01 06:37:41;;;;;;;8.23;4.20;;;;;;;25.55;55.13;97924.25;4993250;28;20026;-73
2022/08/01 06:40:09;;;;;;;5.68;3.92;;;;;;;24.35;57.99;97904.66;5010680;28;20133;-74
2022/08/01 06:42:35;;;;;;;10.48;4.07;;;;;;;25.00;57.06;97913.16;5010915;28;20027;-74
2022/08/01 06:45:05;;;;;;;4.43;3.63;;;;;;;24.98;57.34;97911.94;5010013;28;20474;-75
2022/08/01 06:47:30;;;;;;;6.28;4.30;;;;;;;25.34;56.78;97915.72;5010907;28;20026;-74
2022/08/01 06:49:56;;;;;;;6.07;3.80;;;;;;;25.43;56.17;97914.19;5010767;28;20041;-75
2022/08/01 06:52:21;;;;;;;6.70;3.80;;;;;;;25.27;57.04;97919.31;5010914;28;20510;-74
2022/08/01 06:54:46;;;;;;;6.72;3.65;;;;;;;25.42;56.67;97911.75;5010352;28;20026;-73
2022/08/01 06:57:12;;;;;;;4.15;3.20;;;;;;;25.84;54.92;97916.72;5010425;28;20045;-76
2022/08/01 06:59:37;;;;;;;3.70;3.33;;;;;;;25.77;55.19;97919.50;5010694;28;20390;-75
2022/08/01 07:02:03;;;;;;;4.32;3.55;;;;;;;25.86;54.56;97915.13;5010381;28;20026;-74
2022/08/01 07:04:28;;;;;;;4.75;3.40;;;;;;;25.88;54.36;97917.53;5010325;28;20030;-75
2022/08/01 07:06:53;;;;;;;6.55;3.85;;;;;;;25.85;54.82;97910.72;5010796;28;20537;-76
2022/08/01 07:09:19;;;;;;;3.70;3.13;;;;;;;25.31;56.15;97911.69;5010484;28;20020;-75
2022/08/01 07:11:44;;;;;;;6.78;3.80;;;;;;;25.18;56.24;97901.25;5010578;28;20064;-75
2022/08/01 07:14:09;;;;;;;7.15;4.20;;;;;;;25.48;55.08;97899.78;5010696;28;20049;-74
2022/08/01 07:16:35;;;;;;;6.28;3.80;;;;;;;25.39;53.93;97907.75;5010346;28;20382;-76
2022/08/01 07:19:00;;;;;;;7.03;3.92;;;;;;;25.59;53.23;97907.44;5010578;28;20412;-74
2022/08/01 07:21:25;;;;;;;4.03;3.28;;;;;;;25.34;54.63;97905.31;5010441;28;20058;-75
2022/08/01 07:23:51;;;;;;;5.53;3.22;;;;;;;25.74;54.28;97906.28;5010657;28;20061;-75
2022/08/01 07:26:17;;;;;;;3.70;3.30;;;;;;;25.69;52.48;97898.25;5010539;28;20066;-75
2022/08/01 07:28:42;;;;;;;6.13;3.58;;;;;;;25.89;52.46;97907.94;5013985;28;20044;-78
2022/08/01 07:31:08;;;;;;;3.78;3.00;;;;;;;26.00;51.66;97909.53;5017158;28;20026;-74
2022/08/01 07:33:33;;;;;;;4.78;3.45;;;;;;;26.34;50.21;97900.81;5018057;28;20022;-75
2022/08/01 07:36:00;;;;;;;6.13;3.10;;;;;;;27.29;47.14;97900.66;5017947;28;20022;-75
2022/08/01 07:38:25;;;;;;;5.53;3.30;;;;;;;27.58;46.15;97895.75;5013505;28;20034;-75
2022/08/01 07:40:50;;;;;;;4.25;3.30;;;;;;;27.34;47.25;97894.63;5010199;28;20048;-75
2022/08/01 07:43:16;;;;;;;4.10;3.15;;;;;;;27.25;47.23;97883.03;5010332;28;20038;-75
2022/08/01 07:45:41;;;;;;;7.78;4.00;;;;;;;27.13;46.24;97889.06;5010887;28;20371;-75
2022/08/01 07:48:07;;;;;;;4.30;3.50;;;;;;;27.55;45.83;97893.75;5013817;28;20133;-77
2022/08/01 07:50:33;;;;;;;4.30;3.15;;;;;;;27.52;45.56;97903.81;5018623;28;20089;-76
2022/08/01 07:52:59;;;;;;;6.00;3.55;;;;;;;27.66;45.86;97900.09;5002380;28;20034;-74
2022/08/01 07:55:24;;;;;;;4.43;3.47;;;;;;;28.81;43.18;97901.72;5011832;28;20483;-75
2022/08/01 07:57:49;;;;;;;5.07;3.70;;;;;;;29.42;41.90;97905.50;5013877;28;20034;-75
2022/08/01 08:00:15;;;;;;;5.43;4.00;;;;;;;29.76;41.04;97906.28;5013578;28;20041;-75
2022/08/01 08:02:41;;;;;;;3.33;2.88;;;;;;;29.80;40.35;97897.75;5013214;28;20032;-75
2022/08/01 08:05:07;;;;;;;3.88;3.00;;;;;;;30.31;38.75;97902.28;5013172;28;20116;-76
2022/08/01 08:07:32;;;;;;;4.03;2.80;;;;;;;31.46;37.46;97895.78;5013205;28;20026;-73
2022/08/01 08:09:58;;;;;;;3.90;2.92;;;;;;;31.44;37.06;97883.31;5013231;28;20026;-73
2022/08/01 08:12:23;;;;;;;4.03;2.83;;;;;;;32.25;35.49;97890.81;5013220;28;20131;-72
2022/08/01 08:14:49;;;;;;;3.88;3.05;;;;;;;32.73;33.88;97892.09;5013124;28;20033;-72
2022/08/01 08:17:14;;;;;;;4.22;3.30;;;;;;;32.58;33.98;97885.97;5013282;28;20033;-73
2022/08/01 08:19:40;;;;;;;4.82;2.95;;;;;;;32.58;34.20;97888.81;5013141;28;20022;-74
2022/08/01 08:22:08;;;;;;;4.80;2.95;;;;;;;34.78;30.60;97895.31;5013125;28;20053;-75
2022/08/01 08:24:36;;;;;;;3.53;2.90;;;;;;;34.80;30.22;97884.25;5012947;28;20060;-74
2022/08/01 08:27:01;;;;;;;6.53;3.10;;;;;;;34.65;30.36;97893.75;5013025;28;20026;-74
2022/08/01 08:29:29;;;;;;;3.85;3.13;;;;;;;35.51;28.81;97880.94;5013158;28;20037;-75
2022/08/01 08:31:55;;;;;;;6.07;3.42;;;;;;;36.73;26.83;97883.03;5012796;28;20521;-75
2022/08/01 08:34:21;;;;;;;3.63;3.08;;;;;;;36.66;26.78;97882.50;5013053;28;20069;-74
2022/08/01 08:36:46;;;;;;;4.07;3.13;;;;;;;36.57;26.69;97877.59;5012723;28;20117;-75
2022/08/01 08:39:12;;;;;;;7.57;3.15;;;;;;;37.37;26.08;97894.53;5012558;28;20085;-73
2022/08/01 08:41:39;;;;;;;4.10;3.15;;;;;;;37.34;26.27;97889.78;5012689;28;20434;-73
2022/08/01 08:44:06;;;;;;;4.80;2.92;;;;;;;35.18;28.34;97881.31;5012896;28;20116;-73
2022/08/01 08:46:33;;;;;;;5.13;3.25;;;;;;;36.45;27.15;97876.44;5012685;28;20490;-74
2022/08/01 08:49:01;;;;;;;5.13;3.05;;;;;;;37.12;26.22;97883.44;5012560;28;20076;-73
2022/08/01 08:51:27;;;;;;;4.03;3.00;;;;;;;37.70;25.58;97884.03;5012546;28;20126;-74
2022/08/01 08:53:56;;;;;;;3.95;3.08;;;;;;;37.01;26.17;97883.88;5012404;28;20030;-74
2022/08/01 08:56:24;;;;;;;4.90;3.25;;;;;;;36.62;26.96;97891.22;5012498;28;20026;-74
2022/08/01 08:58:50;;;;;;;4.32;3.25;;;;;;;38.06;24.97;97883.94;5012456;28;20037;-74
2022/08/01 09:01:17;;;;;;;4.13;3.28;;;;;;;38.14;24.83;97880.75;5012464;28;20079;-74
2022/08/01 09:03:43;;;;;;;6.35;3.40;;;;;;;38.07;25.11;97881.88;5012371;28;20065;-73
2022/08/01 09:06:09;;;;;;;4.43;3.47;;;;;;;38.36;24.70;97878.47;5011936;28;20112;-74
2022/08/01 09:08:35;;;;;;;7.25;3.45;;;;;;;38.82;24.27;97882.69;5011882;28;20109;-73
2022/08/01 09:11:01;;;;;;;3.90;3.45;;;;;;;37.76;25.43;97875.59;5012478;28;20483;-73
2022/08/01 09:13:26;;;;;;;4.57;3.33;;;;;;;38.58;24.92;97879.78;5012197;28;20080;-75
2022/08/01 09:15:54;;;;;;;7.00;3.35;;;;;;;38.23;24.66;97875.00;4994334;28;20037;-74
2022/08/01 09:18:40;;;;;;;5.15;3.13;;;;;;;39.26;23.89;97884.94;5012153;28;20030;-73
2022/08/01 09:21:08;;;;;;;3.63;3.22;;;;;;;37.31;26.17;97865.78;5011989;28;20030;-73
2022/08/01 09:23:45;;;;;;;4.78;3.38;;;;;;;39.77;23.58;97882.56;5012123;28;20036;-74
2022/08/01 09:26:16;;;;;;;4.60;2.90;;;;;;;40.59;22.29;97878.78;5012256;28;20029;-75
2022/08/01 09:28:43;;;;;;;5.15;3.10;;;;;;;40.69;22.00;97865.88;5011878;28;20022;-73
2022/08/01 09:31:17;;;;;;;4.53;3.33;;;;;;;40.22;22.37;97866.16;5011987;28;20026;-73
2022/08/01 09:33:52;;;;;;;7.40;3.03;;;;;;;41.54;21.70;97877.97;5012004;28;20041;-73
2022/08/01 09:36:17;;;;;;;4.55;3.38;;;;;;;40.34;22.49;97859.31;5011681;28;20026;-72
2022/08/01 09:38:43;;;;;;;4.07;3.25;;;;;;;40.84;22.08;97860.06;5011383;28;20498;-72
2022/08/01 09:41:08;;;;;;;7.28;3.75;;;;;;;39.70;22.83;97859.25;5011472;28;20037;-73
2022/08/01 09:43:34;;;;;;;6.32;3.28;;;;;;;39.20;23.59;97846.78;5011628;28;20022;-73
2022/08/01 09:46:05;;;;;;;4.20;3.80;;;;;;;38.90;23.88;97846.72;5011571;28;20123;-74
2022/08/01 09:48:32;;;;;;;4.47;3.20;;;;;;;39.34;23.39;97844.00;5011593;28;20478;-72
2022/08/01 09:50:59;;;;;;;4.75;3.47;;;;;;;38.32;24.16;97847.16;5011478;28;20029;-72
2022/08/01 09:53:24;;;;;;;4.53;3.25;;;;;;;38.08;24.85;97834.91;5011451;28;20506;-72
2022/08/01 09:55:52;;;;;;;6.05;3.40;;;;;;;37.98;25.11;97839.84;5011377;28;20076;-73
2022/08/01 09:58:19;;;;;;;3.92;3.13;;;;;;;36.62;27.14;97831.34;4993417;28;20372;-73
2022/08/01 10:01:02;;;;;;;3.63;3.30;;;;;;;37.07;26.69;97832.66;4993805;28;20168;-73
2022/08/01 10:03:29;;;;;;;4.00;3.28;;;;;;;36.56;27.50;97816.13;5011757;28;20029;-72
2022/08/01 10:05:56;;;;;;;5.63;3.08;;;;;;;38.93;24.71;97831.44;5012798;28;20407;-71
2022/08/01 10:08:24;;;;;;;6.97;2.97;;;;;;;40.99;22.33;97838.63;5011402;28;20113;-73
2022/08/01 10:11:10;;;;;;;5.80;3.30;;;;;;;41.12;22.32;97835.41;5011325;28;20030;-72
2022/08/01 10:13:36;;;;;;;4.38;3.28;;;;;;;39.71;23.57;97815.78;5011145;28;20029;-72
2022/08/01 10:16:02;;;;;;;5.03;3.30;;;;;;;38.72;24.55;97820.28;5010931;28;20387;-73
2022/08/01 10:18:31;;;;;;;4.28;3.35;;;;;;;38.30;24.82;97815.41;5009796;28;20071;-73
2022/08/01 10:20:58;;;;;;;5.05;3.58;;;;;;;39.22;23.62;97821.31;5010622;28;20022;-72
2022/08/01 10:23:33;;;;;;;4.35;2.85;;;;;;;39.18;23.08;97812.13;5010778;28;20033;-73
2022/08/01 10:26:01;;;;;;;3.78;3.13;;;;;;;39.92;23.10;97808.84;5010882;28;20029;-73
2022/08/01 10:28:30;;;;;;;4.28;2.85;;;;;;;41.61;21.26;97809.31;5010891;28;20021;-73
2022/08/01 10:30:57;;;;;;;7.07;3.58;;;;;;;40.10;22.32;97802.09;5010749;28;20042;-72
2022/08/01 10:33:23;;;;;;;3.50;3.00;;;;;;;40.69;22.34;97804.81;5011105;28;20038;-72
2022/08/01 10:35:50;;;;;;;3.88;3.20;;;;;;;41.21;21.75;97797.09;5010446;28;20833;-74
2022/08/01 10:38:16;;;;;;;3.80;3.40;;;;;;;37.60;25.73;97785.34;5010809;28;20030;-72
2022/08/01 10:40:42;;;;;;;5.80;3.35;;;;;;;38.93;23.90;97788.50;5010678;28;20038;-72
2022/08/01 10:43:09;;;;;;;3.72;2.72;;;;;;;36.23;26.14;97778.00;5009508;28;20100;-74
2022/08/01 10:45:35;;;;;;;3.90;3.30;;;;;;;35.96;27.36;97782.31;5010839;28;20022;-74
2022/08/01 10:48:33;;;;;;;5.75;3.50;;;;;;;35.48;28.09;97771.66;5010427;28;20044;-72
2022/08/01 10:51:03;;;;;;;3.45;3.15;;;;;;;34.44;28.39;97775.84;4994812;28;20180;-73
2022/08/01 10:53:29;;;;;;;3.83;2.97;;;;;;;33.93;29.36;97763.75;5010196;28;20452;-74
2022/08/01 10:56:00;;;;;;;4.55;3.45;;;;;;;33.58;29.56;97756.38;5010332;28;20113;-74
2022/08/01 10:58:26;;;;;;;4.95;3.70;;;;;;;33.32;29.27;97761.22;5010309;28;20124;-74
2022/08/01 11:01:26;;;;;;;4.28;3.13;;;;;;;33.18;30.73;97753.13;5010196;28;20033;-74
2022/08/01 11:03:54;;;;;;;6.82;3.45;;;;;;;33.42;29.11;97749.53;5010314;28;20026;-73
2022/08/01 11:06:25;;;;;;;4.95;3.17;;;;;;;33.49;28.61;97742.84;5010092;28;20026;-73
2022/08/01 11:08:52;;;;;;;3.83;3.28;;;;;;;33.11;30.52;97744.84;5010230;28;20030;-73
2022/08/01 11:11:18;;;;;;;5.43;2.88;;;;;;;33.22;30.95;97737.63;5010203;28;20100;-75
2022/08/01 11:14:06;;;;;;;4.80;3.00;;;;;;;33.27;31.04;97742.72;5010429;28;20029;-72
2022/08/01 11:16:35;;;;;;;3.65;3.22;;;;;;;33.25;30.45;97739.53;5010240;28;20018;-72
2022/08/01 11:19:00;;;;;;;4.05;3.13;;;;;;;33.09;30.83;97741.66;5010248;28;20026;-73
2022/08/01 11:22:03;;;;;;;4.00;3.00;;;;;;;33.27;30.03;97733.41;5009957;28;20077;-73
2022/08/01 11:24:47;;;;;;;3.08;2.58;;;;;;;33.05;30.23;97743.78;5010059;28;20041;-73
2022/08/01 11:27:22;;;;;;;7.10;3.00;;;;;;;33.25;30.41;97736.72;5009979;28;20025;-72
2022/08/01 11:30:09;;;;;;;4.07;2.70;;;;;;;32.71;30.53;97733.00;5010450;28;20113;-73
2022/08/01 11:32:47;;;;;;;4.07;2.78;;;;;;;32.63;30.27;97729.59;5014058;28;20026;-74
2022/08/01 11:35:13;;;;;;;4.00;2.88;;;;;;;32.89;29.37;97736.16;5013862;28;20029;-73
2022/08/01 11:37:38;;;;;;;5.50;2.90;;;;;;;33.10;28.49;97731.91;5013919;28;20029;-73
2022/08/01 11:40:27;;;;;;;4.45;2.83;;;;;;;32.97;29.02;97731.84;5013660;28;20128;-75